createdAt,value
2024-01-08T00:00:10.694Z,22.80
2024-01-08T00:02:59.861Z,27.60
2024-01-08T00:05:30.148Z,26.60
2024-01-08T00:07:59.349Z,33.00
2024-01-08T00:10:28.364Z,28.80
2024-01-08T00:12:57.423Z,34.75
2024-01-08T00:15:26.299Z,37.00
2024-01-08T00:17:55.549Z,41.25
2024-01-08T00:20:24.373Z,30.75
2024-01-08T00:22:54.987Z,40.00
2024-01-08T00:25:24.221Z,23.25
2024-01-08T00:27:54.008Z,39.75
2024-01-08T00:30:22.790Z,37.75
2024-01-08T00:32:52.283Z,41.50
2024-01-08T00:35:21.259Z,38.75
2024-01-08T00:37:50.552Z,40.00
2024-01-08T00:40:20.895Z,34.25
2024-01-08T00:42:50.033Z,45.75
2024-01-08T00:45:19.030Z,39.50
2024-01-08T00:47:48.173Z,40.75
2024-01-08T00:50:17.079Z,37.00
2024-01-08T00:52:46.220Z,49.75
2024-01-08T00:55:15.139Z,39.25
2024-01-08T00:57:45.866Z,42.00
2024-01-08T01:00:15.089Z,36.00
2024-01-08T01:02:44.406Z,30.25
2024-01-08T01:05:13.561Z,42.50
2024-01-08T01:07:43.190Z,53.50
2024-01-08T01:10:12.376Z,49.50
2024-01-08T01:12:41.555Z,48.50
2024-01-08T01:15:12.378Z,38.50
2024-01-08T01:17:41.671Z,44.50
2024-01-08T01:20:11.204Z,58.25
2024-01-08T01:22:40.405Z,49.50
2024-01-08T01:25:10.775Z,50.25
2024-01-08T01:27:39.838Z,40.50
2024-01-08T01:30:09.707Z,43.50
2024-01-08T01:32:40.473Z,43.50
2024-01-08T01:35:10.266Z,31.00
2024-01-08T01:37:39.440Z,33.00
2024-01-08T01:40:09.747Z,36.50
2024-01-08T01:42:38.784Z,29.25
2024-01-08T01:45:09.252Z,32.50
2024-01-08T01:47:40.208Z,33.40
2024-01-08T01:50:12.943Z,32.25
2024-01-08T01:52:42.979Z,27.60
2024-01-08T01:55:13.233Z,34.50
2024-01-08T01:57:44.826Z,36.00
2024-01-08T02:00:15.615Z,32.50
2024-01-08T02:02:46.342Z,36.00
2024-01-08T02:05:16.491Z,31.50
2024-01-08T02:07:46.716Z,26.25
2024-01-08T02:10:15.475Z,37.75
2024-01-08T02:12:44.500Z,47.75
2024-01-08T02:15:13.417Z,40.75
2024-01-08T02:17:42.514Z,38.25
2024-01-08T02:20:13.149Z,39.75
2024-01-08T02:22:44.158Z,38.00
2024-01-08T02:25:13.638Z,33.50
2024-01-08T02:27:43.048Z,42.00
2024-01-08T02:30:12.532Z,38.25
2024-01-08T02:32:41.893Z,29.25
2024-01-08T02:35:10.923Z,31.00
2024-01-08T02:37:40.170Z,35.00
2024-01-08T02:40:11.154Z,28.50
2024-01-08T02:42:42.454Z,34.25
2024-01-08T02:45:11.775Z,27.50
2024-01-08T02:47:41.685Z,28.40
2024-01-08T02:50:11.677Z,36.75
2024-01-08T02:52:40.939Z,25.50
2024-01-08T02:55:11.468Z,26.50
2024-01-08T02:57:40.619Z,30.25
2024-01-08T03:00:10.910Z,34.25
2024-01-08T03:02:41.217Z,31.25
2024-01-08T03:05:10.791Z,27.75
2024-01-08T03:07:39.844Z,26.40
2024-01-08T03:10:10.623Z,32.50
2024-01-08T03:12:40.466Z,27.80
2024-01-08T03:15:10.020Z,26.50
2024-01-08T03:17:39.199Z,39.00
2024-01-08T03:20:10.186Z,29.80
2024-01-08T03:22:40.461Z,23.75
2024-01-08T03:25:12.233Z,36.25
2024-01-08T03:27:41.327Z,26.75
2024-01-08T03:30:11.247Z,25.75
2024-01-08T03:32:40.657Z,37.00
2024-01-08T03:35:10.068Z,33.40
2024-01-08T03:37:39.205Z,32.20
2024-01-08T03:40:11.601Z,38.25
2024-01-08T03:42:40.895Z,34.25
2024-01-08T03:45:10.650Z,36.00
2024-01-08T03:47:41.373Z,36.75
2024-01-08T03:50:10.975Z,33.00
2024-01-08T03:52:40.208Z,29.75
2024-01-08T03:55:11.068Z,16.75
2024-01-08T03:57:40.334Z,33.25
2024-01-08T04:00:10.904Z,30.50
2024-01-08T04:02:43.327Z,32.00
2024-01-08T04:05:14.025Z,37.50
2024-01-08T04:07:43.158Z,35.00
2024-01-08T04:10:13.746Z,27.25
2024-01-08T04:12:42.824Z,35.75
2024-01-08T04:15:11.671Z,33.75
2024-01-08T04:17:41.026Z,28.75
2024-01-08T04:20:10.992Z,27.75
2024-01-08T04:22:40.104Z,30.25
2024-01-08T04:25:09.243Z,30.00
2024-01-08T04:27:40.234Z,28.50
2024-01-08T04:30:09.902Z,34.00
2024-01-08T04:32:39.111Z,35.75
2024-01-08T04:35:08.989Z,40.75
2024-01-08T04:37:38.367Z,41.25
2024-01-08T04:40:08.417Z,38.50
2024-01-08T04:42:37.388Z,32.00
2024-01-08T04:45:08.462Z,33.75
2024-01-08T04:47:37.812Z,15.50
2024-01-08T04:50:07.928Z,40.25
2024-01-08T04:52:37.094Z,37.25
2024-01-08T04:55:07.636Z,33.00
2024-01-08T04:57:36.815Z,39.25
2024-01-08T05:00:08.452Z,35.50
2024-01-08T05:02:37.710Z,38.00
2024-01-08T05:05:06.872Z,34.25
2024-01-08T05:07:35.947Z,28.25
2024-01-08T05:10:05.306Z,30.75
2024-01-08T05:12:34.385Z,34.00
2024-01-08T05:15:04.090Z,31.25
2024-01-08T05:17:34.792Z,38.75
2024-01-08T05:20:04.127Z,33.25
2024-01-08T05:22:33.328Z,31.75
2024-01-08T05:25:01.999Z,36.25
2024-01-08T05:27:31.076Z,37.00
2024-01-08T05:29:59.781Z,53.00
2024-01-08T05:32:29.025Z,39.00
2024-01-08T05:34:59.879Z,56.25
2024-01-08T05:37:28.991Z,69.50
2024-01-08T05:39:57.799Z,56.00
2024-01-08T05:42:27.841Z,51.50
2024-01-08T05:44:57.301Z,70.75
2024-01-08T05:47:26.496Z,65.00
2024-01-08T05:49:55.499Z,60.50
2024-01-08T05:52:25.998Z,57.00
2024-01-08T05:54:54.765Z,60.00
2024-01-08T05:57:23.976Z,63.00
2024-01-08T05:59:53.071Z,69.00
2024-01-08T06:02:22.491Z,56.00
2024-01-08T06:04:51.537Z,62.50
2024-01-08T06:07:20.968Z,69.75
2024-01-08T06:09:51.044Z,48.50
2024-01-08T06:12:20.181Z,55.25
2024-01-08T06:14:49.998Z,47.50
2024-01-08T06:17:19.992Z,66.50
2024-01-08T06:19:49.760Z,50.75
2024-01-08T06:22:19.160Z,48.25
2024-01-08T06:24:48.006Z,40.50
2024-01-08T06:27:18.935Z,63.50
2024-01-08T06:29:47.969Z,50.50
2024-01-08T06:32:18.041Z,38.25
2024-01-08T06:34:46.807Z,44.00
2024-01-08T06:37:15.992Z,41.75
2024-01-08T06:39:45.009Z,53.50
2024-01-08T06:42:14.282Z,52.25
2024-01-08T06:44:44.849Z,57.25
2024-01-08T06:47:14.292Z,54.25
2024-01-08T06:49:43.201Z,68.00
2024-01-08T06:52:12.664Z,46.25
2024-01-08T06:54:41.691Z,38.50
2024-01-08T06:57:10.861Z,40.75
2024-01-08T06:59:39.741Z,46.75
2024-01-08T07:02:10.286Z,36.25
2024-01-08T07:04:39.302Z,35.00
2024-01-08T07:07:08.469Z,37.50
2024-01-08T07:09:39.050Z,37.00
2024-01-08T07:12:10.939Z,44.00
2024-01-08T07:14:47.272Z,36.75
2024-01-08T07:17:18.143Z,44.00
2024-01-08T07:19:48.141Z,50.00
2024-01-08T07:22:17.471Z,52.75
2024-01-08T07:24:46.300Z,43.50
2024-01-08T07:27:16.152Z,45.25
2024-01-08T07:29:45.536Z,33.25
2024-01-08T07:32:15.900Z,44.25
2024-01-08T07:34:46.379Z,31.00
2024-01-08T07:37:15.679Z,42.50
2024-01-08T07:39:44.544Z,39.25
2024-01-08T07:42:13.639Z,39.00
2024-01-08T07:44:42.510Z,41.25
2024-01-08T07:47:11.828Z,36.25
2024-01-08T07:49:40.760Z,44.00
2024-01-08T07:52:11.276Z,34.50
2024-01-08T07:54:40.059Z,40.00
2024-01-08T07:57:11.824Z,40.25
2024-01-08T07:59:41.489Z,35.75
2024-01-08T08:02:10.718Z,34.75
2024-01-08T08:04:39.654Z,45.25
2024-01-08T08:07:10.148Z,56.25
2024-01-08T08:09:38.975Z,59.50
2024-01-08T08:12:09.010Z,57.00
2024-01-08T08:14:38.265Z,61.50
2024-01-08T08:17:07.724Z,46.25
2024-01-08T08:19:36.678Z,45.50
2024-01-08T08:22:05.895Z,43.50
2024-01-08T08:24:36.057Z,33.00
2024-01-08T08:27:05.924Z,9.25
2024-01-08T08:29:35.175Z,60.75
2024-01-08T08:32:04.937Z,47.50
2024-01-08T08:34:34.350Z,45.50
2024-01-08T08:37:05.794Z,39.25
2024-01-08T08:39:36.346Z,46.00
2024-01-08T08:42:06.702Z,49.75
2024-01-08T08:44:36.000Z,46.75
2024-01-08T08:47:05.628Z,38.00
2024-01-08T08:49:34.485Z,38.00
2024-01-08T08:52:05.247Z,36.50
2024-01-08T08:54:35.448Z,48.75
2024-01-08T08:57:04.866Z,42.75
2024-01-08T08:59:38.571Z,42.25
2024-01-08T09:02:08.042Z,36.25
2024-01-08T09:04:36.944Z,45.50
2024-01-08T09:07:07.751Z,47.25
2024-01-08T09:09:38.073Z,37.50
2024-01-08T09:12:07.855Z,51.75
2024-01-08T09:14:36.789Z,36.25
2024-01-08T09:17:06.041Z,28.00
2024-01-08T09:19:37.180Z,33.50
2024-01-08T09:22:07.310Z,47.00
2024-01-08T09:24:38.232Z,39.25
2024-01-08T09:27:07.379Z,62.25
2024-01-08T09:29:36.221Z,52.25
2024-01-08T09:32:05.647Z,45.50
2024-01-08T09:34:34.514Z,54.00
2024-01-08T09:37:04.073Z,41.25
2024-01-08T09:39:34.174Z,47.00
2024-01-08T09:42:05.705Z,49.25
2024-01-08T09:44:34.985Z,47.75
2024-01-08T09:47:05.471Z,48.25
2024-01-08T09:49:35.142Z,61.00
2024-01-08T09:52:04.955Z,55.25
2024-01-08T09:54:35.584Z,50.25
2024-01-08T09:57:06.771Z,45.50
2024-01-08T09:59:35.844Z,48.00
2024-01-08T10:02:07.219Z,45.75
2024-01-08T10:04:36.317Z,43.00
2024-01-08T10:07:08.196Z,46.50
2024-01-08T10:09:37.807Z,46.75
2024-01-08T10:12:11.443Z,46.50
2024-01-08T10:14:42.209Z,48.25
2024-01-08T10:17:11.520Z,39.00
2024-01-08T10:19:41.997Z,53.00
2024-01-08T10:22:12.887Z,70.25
2024-01-08T10:24:43.333Z,49.00
2024-01-08T10:27:14.402Z,56.50
2024-01-08T10:29:43.686Z,58.75
2024-01-08T10:32:14.053Z,56.75
2024-01-08T10:34:46.025Z,50.50
2024-01-08T10:37:16.641Z,54.75
2024-01-08T10:39:51.556Z,61.25
2024-01-08T10:42:22.580Z,52.50
2024-01-08T10:44:51.360Z,69.50
2024-01-08T10:47:29.056Z,58.50
2024-01-08T10:50:01.056Z,76.50
2024-01-08T10:52:34.944Z,65.25
2024-01-08T10:55:06.009Z,65.50
2024-01-08T10:57:47.036Z,64.75
2024-01-08T11:00:16.691Z,60.75
2024-01-08T11:02:46.401Z,60.50
2024-01-08T11:05:18.523Z,73.75
2024-01-08T11:07:52.377Z,65.75
2024-01-08T11:10:25.024Z,54.50
2024-01-08T11:12:56.896Z,60.50
2024-01-08T11:15:27.557Z,68.25
2024-01-08T11:18:00.477Z,58.00
2024-01-08T11:20:44.425Z,64.75
2024-01-08T11:23:40.265Z,64.50
2024-01-08T11:26:12.864Z,62.50
2024-01-08T11:28:44.185Z,66.00
2024-01-08T11:31:43.798Z,59.75
2024-01-08T11:34:44.801Z,59.00
2024-01-08T11:37:31.863Z,70.25
2024-01-08T11:40:04.988Z,72.25
2024-01-08T11:42:34.350Z,64.75
2024-01-08T11:45:06.292Z,69.50
2024-01-08T11:47:36.012Z,67.00
2024-01-08T11:50:06.131Z,66.75
2024-01-08T11:52:36.300Z,63.25
2024-01-08T11:55:06.833Z,64.75
2024-01-08T11:57:37.280Z,59.25
2024-01-08T12:00:20.215Z,66.50
2024-01-08T12:02:49.625Z,59.00
2024-01-08T12:05:19.405Z,54.00
2024-01-08T12:07:53.920Z,69.25
2024-01-08T12:10:23.467Z,52.50
2024-01-08T12:12:52.271Z,30.25
2024-01-08T12:15:24.168Z,57.25
2024-01-08T12:17:53.424Z,69.75
2024-01-08T12:20:23.453Z,58.00
2024-01-08T12:22:52.444Z,56.75
2024-01-08T12:25:21.690Z,74.75
2024-01-08T12:27:50.416Z,70.00
2024-01-08T12:30:19.542Z,66.25
2024-01-08T12:32:50.214Z,60.75
2024-01-08T12:35:19.652Z,71.25
2024-01-08T12:37:48.788Z,67.75
2024-01-08T12:40:18.442Z,73.25
2024-01-08T12:42:48.831Z,54.00
2024-01-08T12:45:19.192Z,62.75
2024-01-08T12:47:49.791Z,64.25
2024-01-08T12:50:19.164Z,60.75
2024-01-08T12:52:48.073Z,47.50
2024-01-08T12:55:19.634Z,46.75
2024-01-08T12:57:48.502Z,47.75
2024-01-08T13:00:20.108Z,64.50
2024-01-08T13:02:50.311Z,59.50
2024-01-08T13:05:19.812Z,59.50
2024-01-08T13:07:48.730Z,53.00
2024-01-08T13:10:18.037Z,64.50
2024-01-08T13:12:46.833Z,74.00
2024-01-08T13:15:16.031Z,34.75
2024-01-08T13:17:45.014Z,71.00
2024-01-08T13:20:25.053Z,60.50
2024-01-08T13:22:55.995Z,57.25
2024-01-08T13:25:25.477Z,59.00
2024-01-08T13:27:56.789Z,57.50
2024-01-08T13:30:25.957Z,64.00
2024-01-08T13:32:54.860Z,67.00
2024-01-08T13:35:25.534Z,60.75
2024-01-08T13:37:54.300Z,63.50
2024-01-08T13:40:29.196Z,56.25
2024-01-08T13:42:58.066Z,62.00
2024-01-08T13:45:27.624Z,49.75
2024-01-08T13:47:56.829Z,67.00
2024-01-08T13:50:29.879Z,40.25
2024-01-08T13:52:58.787Z,44.00
2024-01-08T13:55:28.030Z,59.00
2024-01-08T13:57:56.887Z,53.00
2024-01-08T14:00:26.538Z,57.00
2024-01-08T14:02:55.804Z,63.00
2024-01-08T14:05:26.231Z,63.00
2024-01-08T14:07:56.514Z,61.25
2024-01-08T14:10:25.993Z,66.25
2024-01-08T14:12:54.700Z,59.75
2024-01-08T14:15:25.341Z,65.75
2024-01-08T14:17:56.129Z,64.50
2024-01-08T14:20:26.476Z,47.50
2024-01-08T14:22:57.168Z,65.50
2024-01-08T14:25:26.611Z,77.50
2024-01-08T14:27:55.570Z,59.25
2024-01-08T14:30:24.808Z,52.50
2024-01-08T14:32:54.147Z,69.25
2024-01-08T14:35:23.460Z,68.50
2024-01-08T14:37:52.523Z,57.50
2024-01-08T14:40:29.114Z,51.75
2024-01-08T14:42:59.548Z,67.25
2024-01-08T14:45:29.315Z,69.25
2024-01-08T14:47:58.220Z,55.75
2024-01-08T14:50:27.978Z,66.75
2024-01-08T14:52:56.848Z,69.75
2024-01-08T14:55:27.940Z,67.00
2024-01-08T14:57:57.134Z,73.00
2024-01-08T15:00:26.750Z,67.00
2024-01-08T15:02:56.405Z,70.50
2024-01-08T15:05:25.906Z,65.00
2024-01-08T15:07:55.741Z,78.50
2024-01-08T15:10:27.589Z,66.00
2024-01-08T15:12:56.515Z,71.25
2024-01-08T15:15:25.958Z,67.75
2024-01-08T15:17:54.943Z,74.00
2024-01-08T15:20:24.156Z,56.75
2024-01-08T15:22:53.066Z,70.50
2024-01-08T15:25:22.997Z,72.75
2024-01-08T15:27:53.149Z,72.00
2024-01-08T15:30:23.798Z,71.75
2024-01-08T15:32:52.706Z,74.50
2024-01-08T15:35:21.909Z,68.25
2024-01-08T15:37:50.807Z,58.25
2024-01-08T15:40:19.959Z,71.00
2024-01-08T15:42:48.821Z,76.25
2024-01-08T15:45:20.416Z,79.50
2024-01-08T15:47:50.077Z,80.75
2024-01-08T15:50:19.374Z,76.00
2024-01-08T15:52:48.197Z,66.25
2024-01-08T15:55:18.322Z,76.00
2024-01-08T15:57:47.282Z,68.75
2024-01-08T16:00:18.424Z,69.50
2024-01-08T16:02:47.549Z,66.00
2024-01-08T16:05:16.911Z,69.00
2024-01-08T16:07:45.740Z,78.25
2024-01-08T16:10:14.870Z,73.75
2024-01-08T16:12:43.704Z,77.25
2024-01-08T16:15:12.871Z,76.25
2024-01-08T16:17:43.318Z,69.75
2024-01-08T16:20:13.315Z,66.50
2024-01-08T16:22:42.828Z,72.25
2024-01-08T16:25:12.192Z,77.75
2024-01-08T16:27:40.976Z,75.75
2024-01-08T16:30:13.201Z,73.00
2024-01-08T16:32:43.685Z,74.75
2024-01-08T16:35:14.611Z,75.25
2024-01-08T16:37:44.360Z,63.00
2024-01-08T16:40:13.788Z,74.00
2024-01-08T16:42:43.086Z,75.50
2024-01-08T16:45:13.562Z,76.50
2024-01-08T16:47:51.496Z,65.25
2024-01-08T16:50:23.992Z,73.50
2024-01-08T16:52:53.275Z,58.00
2024-01-08T16:55:22.381Z,65.25
2024-01-08T16:57:51.236Z,77.50
2024-01-08T17:00:21.444Z,65.25
2024-01-08T17:02:52.054Z,57.50
2024-01-08T17:05:21.928Z,69.75
2024-01-08T17:07:50.723Z,68.50
2024-01-08T17:10:19.941Z,73.75
2024-01-08T17:12:48.727Z,66.50
2024-01-08T17:15:17.988Z,62.50
2024-01-08T17:17:46.920Z,64.25
2024-01-08T17:20:17.985Z,67.50
2024-01-08T17:22:46.783Z,54.00
2024-01-08T17:25:16.012Z,57.75
2024-01-08T17:27:45.012Z,63.75
2024-01-08T17:30:14.868Z,66.25
2024-01-08T17:32:44.863Z,59.25
2024-01-08T17:35:14.218Z,68.75
2024-01-08T17:37:44.638Z,66.75
2024-01-08T17:40:15.791Z,59.50
2024-01-08T17:42:44.804Z,62.00
2024-01-08T17:45:14.409Z,71.75
2024-01-08T17:47:43.354Z,64.25
2024-01-08T17:50:14.205Z,52.25
2024-01-08T17:52:44.434Z,68.00
2024-01-08T17:55:13.602Z,74.25
2024-01-08T17:57:42.435Z,69.00
2024-01-08T18:00:15.748Z,70.75
2024-01-08T18:02:44.878Z,74.50
2024-01-08T18:05:15.160Z,69.75
2024-01-08T18:07:45.610Z,65.75
2024-01-08T18:10:14.732Z,73.25
2024-01-08T18:12:43.995Z,66.25
2024-01-08T18:15:13.347Z,70.25
2024-01-08T18:17:42.723Z,63.67
2024-01-08T18:20:13.400Z,66.50
2024-01-08T18:22:42.352Z,68.00
2024-01-08T18:25:12.923Z,67.00
2024-01-08T18:27:42.444Z,76.00
2024-01-08T18:30:11.877Z,64.75
2024-01-08T18:32:40.807Z,67.00
2024-01-08T18:35:11.279Z,71.25
2024-01-08T18:37:40.126Z,67.75
2024-01-08T18:40:10.571Z,63.25
2024-01-08T18:42:40.743Z,60.75
2024-01-08T18:45:12.775Z,69.00
2024-01-08T18:47:41.696Z,67.25
2024-01-08T18:50:11.367Z,66.00
2024-01-08T18:52:40.182Z,69.50
2024-01-08T18:55:10.323Z,52.00
2024-01-08T18:57:40.484Z,63.75
2024-01-08T19:00:11.226Z,65.50
2024-01-08T19:02:40.138Z,69.25
2024-01-08T19:05:09.531Z,70.75
2024-01-08T19:07:42.402Z,72.50
2024-01-08T19:10:12.251Z,69.75
2024-01-08T19:12:42.375Z,62.75
2024-01-08T19:15:14.221Z,48.00
2024-01-08T19:17:43.497Z,60.25
2024-01-08T19:20:13.139Z,68.50
2024-01-08T19:22:42.416Z,70.50
2024-01-08T19:25:11.791Z,67.50
2024-01-08T19:27:41.104Z,65.00
2024-01-08T19:30:12.816Z,52.75
2024-01-08T19:32:42.293Z,62.50
2024-01-08T19:35:15.929Z,63.75
2024-01-08T19:37:44.710Z,65.00
2024-01-08T19:40:14.446Z,68.25
2024-01-08T19:42:43.307Z,71.50
2024-01-08T19:45:13.812Z,60.75
2024-01-08T19:47:42.611Z,59.00
2024-01-08T19:50:12.059Z,69.50
2024-01-08T19:52:41.045Z,38.00
2024-01-08T19:55:10.742Z,65.25
2024-01-08T19:57:40.993Z,59.75
2024-01-08T20:00:12.718Z,18.75
2024-01-08T20:02:43.622Z,66.50
2024-01-08T20:05:17.594Z,67.00
2024-01-08T20:07:46.358Z,62.75
2024-01-08T20:10:15.734Z,62.25
2024-01-08T20:12:44.553Z,51.50
2024-01-08T20:15:14.174Z,59.50
2024-01-08T20:17:46.805Z,70.00
2024-01-08T20:20:16.837Z,61.00
2024-01-08T20:22:45.977Z,61.75
2024-01-08T20:25:15.231Z,61.50
2024-01-08T20:27:44.051Z,64.75
2024-01-08T20:30:13.387Z,65.50
2024-01-08T20:32:48.620Z,55.75
2024-01-08T20:35:18.228Z,64.75
2024-01-08T20:37:47.014Z,70.50
2024-01-08T20:40:16.332Z,50.75
2024-01-08T20:42:45.148Z,51.25
2024-01-08T20:45:14.223Z,45.25
2024-01-08T20:47:45.917Z,48.00
2024-01-08T20:50:15.403Z,40.50
2024-01-08T20:52:44.417Z,40.25
2024-01-08T20:55:13.594Z,37.50
2024-01-08T20:57:42.356Z,45.25
2024-01-08T21:00:12.490Z,34.00
2024-01-08T21:02:43.515Z,28.50
2024-01-08T21:05:14.730Z,37.25
2024-01-08T21:07:43.847Z,30.25
2024-01-08T21:10:13.570Z,37.75
2024-01-08T21:12:42.641Z,36.25
2024-01-08T21:15:12.551Z,34.25
2024-01-08T21:17:43.628Z,28.25
2024-01-08T21:20:14.717Z,32.00
2024-01-08T21:22:43.644Z,38.25
2024-01-08T21:25:12.905Z,33.25
2024-01-08T21:27:45.496Z,33.25
2024-01-08T21:30:15.198Z,31.25
2024-01-08T21:32:44.287Z,29.80
2024-01-08T21:35:14.967Z,35.75
2024-01-08T21:37:44.036Z,29.50
2024-01-08T21:40:13.577Z,32.75
2024-01-08T21:42:42.378Z,36.75
2024-01-08T21:45:13.800Z,41.75
2024-01-08T21:47:42.818Z,39.50
2024-01-08T21:50:12.467Z,49.00
2024-01-08T21:52:42.684Z,36.25
2024-01-08T21:55:12.880Z,32.75
2024-01-08T21:57:42.444Z,32.25
2024-01-08T22:00:12.379Z,53.50
2024-01-08T22:02:41.138Z,36.00
2024-01-08T22:05:11.810Z,34.50
2024-01-08T22:07:43.244Z,32.25
2024-01-08T22:10:12.461Z,26.25
2024-01-08T22:12:42.699Z,26.25
2024-01-08T22:15:12.740Z,27.25
2024-01-08T22:17:41.976Z,35.75
2024-01-08T22:20:12.356Z,32.25
2024-01-08T22:22:43.746Z,26.00
2024-01-08T22:25:14.224Z,27.00
2024-01-08T22:27:43.278Z,30.00
2024-01-08T22:30:12.995Z,30.25
2024-01-08T22:32:42.109Z,27.00
2024-01-08T22:35:12.036Z,19.50
2024-01-08T22:37:43.232Z,31.50
2024-01-08T22:40:13.490Z,26.50
2024-01-08T22:42:42.325Z,23.25
2024-01-08T22:45:12.287Z,24.50
2024-01-08T22:47:41.140Z,26.75
2024-01-08T22:50:11.234Z,23.00
2024-01-08T22:52:40.043Z,32.00
2024-01-08T22:55:10.680Z,44.75
2024-01-08T22:57:40.125Z,36.00
2024-01-08T23:00:10.569Z,20.00
2024-01-08T23:02:39.498Z,37.75
2024-01-08T23:05:09.326Z,35.25
2024-01-08T23:07:38.145Z,32.00
2024-01-08T23:10:07.896Z,33.75
2024-01-08T23:12:38.045Z,32.50
2024-01-08T23:15:08.152Z,34.00
2024-01-08T23:17:36.991Z,31.75
2024-01-08T23:20:09.015Z,34.00
2024-01-08T23:22:38.064Z,33.75
2024-01-08T23:25:08.115Z,37.00
2024-01-08T23:27:38.326Z,39.50
2024-01-08T23:30:09.376Z,31.50
2024-01-08T23:32:38.237Z,36.50
2024-01-08T23:35:08.170Z,31.25
2024-01-08T23:37:37.033Z,33.50
2024-01-08T23:40:06.985Z,47.00
2024-01-08T23:42:37.166Z,28.00
2024-01-08T23:45:06.846Z,37.75
2024-01-08T23:47:35.789Z,33.50
2024-01-08T23:50:05.261Z,38.50
2024-01-08T23:52:34.168Z,39.00
2024-01-08T23:55:03.848Z,40.00
2024-01-08T23:57:32.609Z,36.25
